Time;durP1;ratioP1;P1;durP2;ratioP2;P2;SDS_P1;SDS_P2;PMS_P1;PMS_P2;Temp;Humidity;BMP_temperature;BMP_pressure;BME280_temperature;BME280_humidity;BME280_pressure;Samples;Min_cycle;Max_cycle;Signal;HPM_P1;HPM_P2
2021/03/23 00:00:43;;;;;;;11.85;5.80;;;5.20;56.50;;;;;;5018932;28;20140;-75
2021/03/23 00:03:15;;;;;;;10.73;5.22;;;5.20;56.50;;;;;;5021588;28;20064;-73
2021/03/23 00:05:42;;;;;;;8.68;5.10;;;5.10;56.40;;;;;;5019262;28;20048;-74
2021/03/23 00:08:23;;;;;;;7.25;4.55;;;5.10;56.30;;;;;;5017201;28;20029;-74
2021/03/23 00:10:49;;;;;;;8.77;5.22;;;5.00;56.10;;;;;;5013606;28;20026;-73
2021/03/23 00:13:15;;;;;;;7.80;4.47;;;5.00;56.20;;;;;;5013447;28;20030;-73
2021/03/23 00:15:43;;;;;;;9.32;4.68;;;5.00;56.20;;;;;;5013467;28;20032;-74
2021/03/23 00:18:10;;;;;;;7.40;4.60;;;4.90;56.20;;;;;;5013322;28;20460;-73
2021/03/23 00:20:36;;;;;;;10.38;4.68;;;5.00;56.20;;;;;;5013589;28;20496;-74
2021/03/23 00:23:02;;;;;;;7.78;4.07;;;4.90;56.70;;;;;;5013713;28;20026;-74
2021/03/23 00:25:27;;;;;;;9.25;4.40;;;4.90;56.10;;;;;;5013460;28;20053;-73
2021/03/23 00:27:53;;;;;;;8.45;4.78;;;4.90;56.10;;;;;;5013373;28;20100;-73
2021/03/23 00:30:19;;;;;;;9.00;4.53;;;4.90;56.10;;;;;;5013185;28;20144;-73
2021/03/23 00:32:45;;;;;;;7.63;4.65;;;4.90;56.20;;;;;;5013342;28;20042;-73
2021/03/23 00:35:11;;;;;;;9.98;4.10;;;4.90;56.20;;;;;;5013176;28;20027;-74
2021/03/23 00:37:38;;;;;;;6.45;4.07;;;4.80;56.00;;;;;;5013152;28;20030;-73
2021/03/23 00:40:16;;;;;;;12.90;5.82;;;4.80;56.00;;;;;;5013067;28;20030;-74
2021/03/23 00:42:42;;;;;;;12.10;6.90;;;4.80;56.10;;;;;;5013170;28;20427;-74
2021/03/23 00:45:09;;;;;;;16.70;7.50;;;4.80;56.00;;;;;;5011750;28;20041;-74
2021/03/23 00:47:34;;;;;;;9.75;6.18;;;4.80;56.10;;;;;;5012852;28;20040;-73
2021/03/23 00:50:00;;;;;;;10.60;6.30;;;4.80;56.10;;;;;;5011777;28;20030;-74
2021/03/23 00:52:26;;;;;;;9.43;5.60;;;4.70;56.10;;;;;;5013168;28;20460;-73
2021/03/23 00:54:52;;;;;;;11.32;6.35;;;4.70;56.00;;;;;;5012996;28;20026;-73
2021/03/23 00:57:19;;;;;;;9.10;5.05;;;4.70;56.10;;;;;;5012892;28;20053;-74
2021/03/23 00:59:44;;;;;;;9.65;5.13;;;4.70;56.10;;;;;;5013208;28;20084;-74
2021/03/23 01:02:11;;;;;;;8.18;4.85;;;4.70;56.10;;;;;;5013849;28;20081;-74
2021/03/23 01:04:37;;;;;;;8.85;4.45;;;4.70;56.10;;;;;;5013162;28;20034;-74
2021/03/23 01:07:03;;;;;;;9.30;4.05;;;4.70;56.10;;;;;;5012950;28;20029;-75
2021/03/23 01:09:28;;;;;;;9.02;3.88;;;4.70;56.00;;;;;;5011882;28;20125;-74
2021/03/23 01:11:54;;;;;;;7.88;3.65;;;4.70;56.00;;;;;;5012657;28;20460;-73
2021/03/23 01:14:21;;;;;;;5.53;3.60;;;4.70;56.00;;;;;;5012826;28;20076;-74
2021/03/23 01:16:46;;;;;;;8.73;4.00;;;4.70;55.80;;;;;;5015456;28;20419;-74
2021/03/23 01:19:13;;;;;;;6.50;3.90;;;4.70;55.80;;;;;;5015988;28;20030;-74
2021/03/23 01:21:39;;;;;;;9.05;4.57;;;4.70;55.80;;;;;;5015095;28;20472;-74
2021/03/23 01:24:06;;;;;;;8.60;3.70;;;4.80;55.80;;;;;;5016361;28;20033;-74
2021/03/23 01:26:32;;;;;;;7.50;3.53;;;4.80;55.70;;;;;;5016147;28;20022;-74
2021/03/23 01:28:57;;;;;;;6.05;3.67;;;4.80;55.70;;;;;;5016561;28;20032;-74
2021/03/23 01:31:23;;;;;;;6.20;3.53;;;4.80;55.70;;;;;;5016173;28;20476;-74
2021/03/23 01:33:49;;;;;;;7.47;3.50;;;4.80;55.70;;;;;;5015964;28;20029;-74
2021/03/23 01:36:14;;;;;;;10.32;3.67;;;4.80;55.70;;;;;;5016103;28;20054;-74
2021/03/23 01:38:40;;;;;;;6.13;4.20;;;4.80;55.70;;;;;;5016007;28;20066;-74
2021/03/23 01:41:06;;;;;;;6.22;3.58;;;4.80;55.70;;;;;;5015584;28;20026;-74
2021/03/23 01:43:34;;;;;;;7.35;3.67;;;4.80;55.90;;;;;;5016042;28;20034;-74
2021/03/23 01:46:02;;;;;;;8.88;3.97;;;4.90;56.10;;;;;;5014689;28;20057;-74
2021/03/23 01:48:33;;;;;;;7.57;3.97;;;4.90;56.10;;;;;;5015808;28;20068;-74
2021/03/23 01:51:07;;;;;;;6.55;3.55;;;4.90;56.30;;;;;;5015897;28;20105;-74
2021/03/23 01:53:40;;;;;;;6.10;3.35;;;4.90;56.40;;;;;;5015840;28;20028;-74
2021/03/23 01:56:07;;;;;;;5.55;3.60;;;4.90;56.40;;;;;;5015298;28;20030;-75
2021/03/23 01:58:37;;;;;;;7.05;3.78;;;4.90;56.40;;;;;;5015629;28;20030;-75
2021/03/23 02:01:05;;;;;;;4.43;3.13;;;4.90;56.40;;;;;;5015704;28;20053;-75
2021/03/23 02:03:31;;;;;;;7.28;3.42;;;4.90;56.40;;;;;;5016002;28;20022;-75
2021/03/23 02:05:58;;;;;;;5.22;3.42;;;4.90;56.40;;;;;;5015558;28;20532;-75
2021/03/23 02:08:25;;;;;;;6.30;3.65;;;4.80;56.30;;;;;;5014163;28;20050;-75
2021/03/23 02:10:53;;;;;;;8.63;3.20;;;4.80;56.30;;;;;;5015262;28;20444;-75
2021/03/23 02:13:19;;;;;;;5.85;3.58;;;4.90;56.40;;;;;;5015379;28;20109;-75
2021/03/23 02:15:45;;;;;;;6.03;3.08;;;4.80;56.30;;;;;;5015132;28;20475;-75
2021/03/23 02:18:13;;;;;;;7.43;3.10;;;4.80;56.20;;;;;;5015059;28;20072;-75
2021/03/23 02:21:04;;;;;;;6.88;3.15;;;4.80;56.20;;;;;;5015666;28;20353;-75
2021/03/23 02:23:39;;;;;;;7.57;3.10;;;4.80;56.20;;;;;;5015608;28;20025;-75
2021/03/23 02:26:06;;;;;;;7.63;3.50;;;4.80;56.10;;;;;;5015184;28;20084;-72
2021/03/23 02:28:53;;;;;;;6.53;3.15;;;4.80;56.00;;;;;;5015131;28;20416;-75
2021/03/23 02:31:22;;;;;;;6.05;3.05;;;4.80;56.10;;;;;;5015117;28;20034;-75
2021/03/23 02:33:48;;;;;;;5.07;3.20;;;4.80;56.00;;;;;;5015048;28;20036;-74
2021/03/23 02:36:14;;;;;;;4.57;3.20;;;4.70;55.90;;;;;;5014841;28;20030;-75
2021/03/23 02:38:40;;;;;;;5.13;3.08;;;4.70;56.00;;;;;;5014923;28;20061;-74
2021/03/23 02:41:05;;;;;;;7.38;3.67;;;4.70;56.00;;;;;;5014959;28;20026;-75
2021/03/23 02:43:31;;;;;;;5.45;2.88;;;4.60;56.10;;;;;;5013576;28;20482;-73
2021/03/23 02:45:57;;;;;;;5.78;3.05;;;4.60;56.20;;;;;;5014550;28;20072;-74
2021/03/23 02:48:23;;;;;;;6.85;3.10;;;4.70;56.20;;;;;;5013063;28;20034;-74
2021/03/23 02:50:49;;;;;;;7.03;3.13;;;4.70;56.20;;;;;;5014851;28;20053;-73
2021/03/23 02:53:15;;;;;;;6.38;2.72;;;4.70;56.10;;;;;;5013335;28;20058;-74
2021/03/23 02:55:40;;;;;;;8.52;3.38;;;4.60;56.00;;;;;;5014281;28;20026;-74
2021/03/23 02:58:06;;;;;;;7.07;3.05;;;4.60;55.90;;;;;;5014822;28;20034;-73
2021/03/23 03:00:32;;;;;;;5.15;3.10;;;4.60;55.80;;;;;;5014006;28;20050;-73
2021/03/23 03:02:58;;;;;;;4.97;2.40;;;4.50;55.80;;;;;;5014534;28;20032;-73
2021/03/23 03:05:24;;;;;;;5.53;2.95;;;4.50;55.90;;;;;;5014336;28;20025;-74
2021/03/23 03:07:49;;;;;;;4.72;2.60;;;4.40;55.80;;;;;;5014163;28;20041;-74
2021/03/23 03:10:15;;;;;;;6.60;3.05;;;4.30;55.90;;;;;;5014550;28;20025;-74
2021/03/23 03:12:41;;;;;;;6.50;2.60;;;4.30;55.90;;;;;;5014022;28;20030;-74
2021/03/23 03:15:07;;;;;;;4.55;2.70;;;4.20;55.90;;;;;;5014241;28;20022;-74
2021/03/23 03:17:33;;;;;;;4.88;2.90;;;4.20;56.10;;;;;;5013972;28;20076;-74
2021/03/23 03:19:59;;;;;;;4.68;2.30;;;4.20;56.10;;;;;;5013972;28;20022;-74
2021/03/23 03:22:25;;;;;;;4.80;2.38;;;4.10;56.10;;;;;;5014076;28;20022;-74
2021/03/23 03:24:50;;;;;;;4.72;2.80;;;4.10;56.00;;;;;;5014141;28;20037;-74
2021/03/23 03:27:16;;;;;;;6.80;3.40;;;4.10;56.00;;;;;;5013973;28;20104;-74
2021/03/23 03:29:42;;;;;;;5.40;2.80;;;4.10;56.00;;;;;;5012870;28;20038;-74
2021/03/23 03:32:08;;;;;;;5.03;2.83;;;4.10;56.00;;;;;;5014082;28;20034;-73
2021/03/23 03:34:34;;;;;;;4.13;2.30;;;4.20;56.10;;;;;;5012552;28;20439;-74
2021/03/23 03:36:59;;;;;;;3.60;2.42;;;4.20;56.00;;;;;;5013528;28;20034;-74
2021/03/23 03:39:25;;;;;;;6.78;2.78;;;4.20;55.90;;;;;;5012896;28;20034;-73
2021/03/23 03:41:51;;;;;;;5.07;2.80;;;4.20;55.80;;;;;;5013841;28;20416;-75
2021/03/23 03:44:16;;;;;;;6.05;2.53;;;4.20;55.70;;;;;;5013448;28;20026;-74
2021/03/23 03:46:42;;;;;;;5.57;2.53;;;4.20;55.60;;;;;;5013478;28;20491;-74
2021/03/23 03:49:08;;;;;;;7.60;2.92;;;4.20;55.50;;;;;;5012453;28;20057;-75
2021/03/23 03:51:33;;;;;;;9.88;3.17;;;4.10;55.30;;;;;;5013647;28;20022;-74
2021/03/23 03:53:59;;;;;;;4.82;2.70;;;4.00;55.30;;;;;;5013690;28;20104;-74
2021/03/23 03:56:25;;;;;;;6.38;2.97;;;4.00;55.30;;;;;;5013441;28;20022;-74
2021/03/23 03:58:51;;;;;;;6.05;2.80;;;3.90;55.30;;;;;;5012329;28;20037;-74
2021/03/23 04:01:17;;;;;;;4.00;2.40;;;3.90;55.30;;;;;;5013311;28;20049;-74
2021/03/23 04:03:42;;;;;;;4.35;2.60;;;3.80;55.40;;;;;;5013553;28;20026;-74
2021/03/23 04:06:08;;;;;;;5.18;2.70;;;3.90;55.50;;;;;;5013575;28;20041;-74
2021/03/23 04:08:37;;;;;;;10.57;2.35;;;3.90;55.40;;;;;;5013712;28;20045;-74
2021/03/23 04:11:05;;;;;;;6.30;2.88;;;3.90;55.30;;;;;;5013508;28;20387;-74
2021/03/23 04:13:31;;;;;;;8.38;2.60;;;3.90;55.20;;;;;;5013350;28;20088;-74
2021/03/23 04:15:57;;;;;;;4.20;2.35;;;3.80;55.20;;;;;;5013492;28;20113;-74
2021/03/23 04:18:25;;;;;;;5.32;2.33;;;3.80;55.10;;;;;;5013610;28;20117;-75
2021/03/23 04:20:53;;;;;;;5.97;2.50;;;3.80;55.10;;;;;;5014039;28;20030;-75
2021/03/23 04:23:29;;;;;;;6.28;2.72;;;3.80;55.00;;;;;;5012762;28;20057;-75
2021/03/23 04:25:55;;;;;;;3.38;2.40;;;3.70;54.90;;;;;;5012202;28;20534;-74
2021/03/23 04:28:21;;;;;;;5.10;2.75;;;3.60;54.90;;;;;;5013224;28;20034;-75
2021/03/23 04:30:48;;;;;;;4.35;2.72;;;3.60;54.90;;;;;;5013043;28;20440;-75
2021/03/23 04:33:15;;;;;;;8.13;2.60;;;3.60;55.00;;;;;;5013459;28;20080;-73
2021/03/23 04:35:43;;;;;;;5.93;2.42;;;3.60;55.10;;;;;;5013426;28;20349;-73
2021/03/23 04:38:12;;;;;;;4.60;2.50;;;3.60;55.00;;;;;;5011787;28;20044;-75
2021/03/23 04:40:38;;;;;;;7.68;2.47;;;3.60;54.80;;;;;;5013017;28;20038;-74
2021/03/23 04:43:05;;;;;;;5.25;2.33;;;3.60;55.00;;;;;;5011852;28;20038;-74
2021/03/23 04:45:31;;;;;;;4.38;2.70;;;3.50;54.90;;;;;;5012745;28;20471;-74
2021/03/23 04:47:57;;;;;;;4.90;2.40;;;3.50;55.00;;;;;;5012864;28;20026;-75
2021/03/23 04:50:22;;;;;;;5.03;2.35;;;3.60;54.90;;;;;;5013550;28;20026;-75
2021/03/23 04:52:48;;;;;;;5.38;2.78;;;3.50;54.90;;;;;;4999375;28;20179;-74
2021/03/23 04:55:16;;;;;;;6.88;3.00;;;3.60;54.80;;;;;;5016873;28;20034;-74
2021/03/23 04:57:41;;;;;;;4.70;2.45;;;3.60;54.70;;;;;;5015503;28;20104;-74
2021/03/23 05:00:11;;;;;;;6.07;2.22;;;3.70;54.50;;;;;;5015604;28;20040;-74
2021/03/23 05:02:36;;;;;;;5.30;2.80;;;3.70;54.30;;;;;;5017084;28;20045;-75
2021/03/23 05:05:03;;;;;;;4.03;2.53;;;3.60;54.20;;;;;;5013737;28;20033;-74
2021/03/23 05:07:28;;;;;;;9.48;3.88;;;3.60;54.10;;;;;;5016733;28;20402;-74
2021/03/23 05:09:54;;;;;;;7.53;2.60;;;3.60;54.10;;;;;;5016597;28;20029;-74
2021/03/23 05:12:20;;;;;;;5.28;3.00;;;3.70;54.00;;;;;;5016148;28;20368;-74
2021/03/23 05:14:47;;;;;;;8.80;3.00;;;3.70;53.90;;;;;;5016543;28;20076;-75
2021/03/23 05:17:12;;;;;;;6.07;2.42;;;3.70;53.80;;;;;;5016162;28;20045;-74
2021/03/23 05:19:38;;;;;;;3.13;2.40;;;3.80;53.80;;;;;;5016140;28;20068;-75
2021/03/23 05:22:04;;;;;;;4.72;2.00;;;3.80;53.60;;;;;;5015598;28;20022;-74
2021/03/23 05:24:30;;;;;;;4.47;2.17;;;3.90;53.50;;;;;;5016222;28;20034;-75
2021/03/23 05:26:55;;;;;;;3.20;2.10;;;3.90;53.20;;;;;;5016065;28;20087;-74
2021/03/23 05:29:21;;;;;;;5.78;2.20;;;3.90;53.20;;;;;;5014754;28;20413;-75
2021/03/23 05:31:47;;;;;;;5.60;2.08;;;3.90;53.20;;;;;;5015977;28;20033;-74
2021/03/23 05:34:13;;;;;;;5.57;2.58;;;3.90;53.10;;;;;;5015817;28;20030;-74
2021/03/23 05:36:42;;;;;;;4.93;2.42;;;3.90;52.90;;;;;;5016088;28;20057;-74
2021/03/23 05:39:08;;;;;;;6.13;2.63;;;4.00;52.80;;;;;;5015920;28;20037;-75
2021/03/23 05:41:52;;;;;;;5.18;2.65;;;4.00;52.70;;;;;;5016317;28;20029;-74
2021/03/23 05:47:44;;;;;;;7.30;2.40;;;4.00;52.50;;;;;;5015912;28;21059;-75
2021/03/23 05:50:29;;;;;;;6.57;2.58;;;4.10;52.50;;;;;;5014839;28;20038;-74
2021/03/23 05:53:04;;;;;;;4.20;2.55;;;4.10;52.90;;;;;;5016043;28;20060;-74
2021/03/23 05:55:48;;;;;;;;;;;4.10;52.10;;;;;;5016327;28;20030;-74
2021/03/23 05:58:26;;;;;;;16.55;2.58;;;4.10;52.20;;;;;;5015664;28;19948;-74
2021/03/23 06:00:57;;;;;;;3.47;2.15;;;4.20;52.10;;;;;;5015160;28;20053;-75
2021/03/23 06:03:41;;;;;;;4.13;1.77;;;4.20;52.00;;;;;;5015327;28;20115;-74
2021/03/23 06:06:28;;;;;;;6.55;2.17;;;4.20;51.80;;;;;;5015462;28;20084;-75
2021/03/23 06:08:54;;;;;;;4.53;1.90;;;4.30;51.60;;;;;;5015117;28;20480;-76
2021/03/23 06:11:38;;;;;;;3.28;1.65;;;4.30;51.60;;;;;;5013987;28;20041;-76
2021/03/23 06:14:30;;;;;;;3.30;1.73;;;4.40;51.30;;;;;;5015458;28;20033;-73
2021/03/23 06:17:09;;;;;;;6.07;2.10;;;4.40;51.10;;;;;;5014916;28;20255;-74
2021/03/23 06:19:59;;;;;;;5.65;2.10;;;4.40;51.10;;;;;;5014954;28;20034;-75
2021/03/23 06:22:27;;;;;;;6.13;2.38;;;4.40;51.00;;;;;;5019804;28;20030;-75
2021/03/23 06:25:05;;;;;;;4.35;2.20;;;4.50;51.00;;;;;;5024457;28;20030;-76
2021/03/23 06:27:54;;;;;;;6.68;1.98;;;4.50;50.90;;;;;;5020331;28;20025;-73
2021/03/23 06:30:38;;;;;;;4.25;2.30;;;4.60;51.00;;;;;;5022957;28;20026;-75
2021/03/23 06:33:08;;;;;;;5.15;2.10;;;4.60;50.80;;;;;;5023998;28;20025;-75
2021/03/23 06:35:43;;;;;;;6.15;2.10;;;4.70;50.80;;;;;;5020745;28;20105;-75
2021/03/23 06:38:26;;;;;;;5.72;2.53;;;4.80;50.60;;;;;;5022210;28;20360;-76
2021/03/23 06:41:31;;;;;;;6.28;2.70;;;4.80;50.40;;;;;;5020258;28;20037;-76
2021/03/23 06:44:14;;;;;;;9.60;2.93;;;4.80;50.30;;;;;;5007300;28;20041;-76
2021/03/23 06:46:45;;;;;;;5.95;2.10;;;4.90;50.40;;;;;;5033219;28;20383;-72
2021/03/23 06:49:14;;;;;;;6.45;2.40;;;5.00;50.20;;;;;;5033295;28;20390;-71
2021/03/23 06:52:00;;;;;;;7.97;2.10;;;5.00;50.00;;;;;;5034361;28;20033;-72
2021/03/23 06:54:35;;;;;;;6.85;2.20;;;5.10;49.80;;;;;;5026740;28;20033;-72
2021/03/23 06:57:14;;;;;;;7.15;2.20;;;5.20;49.90;;;;;;5034553;28;20100;-71
2021/03/23 06:59:57;;;;;;;5.20;2.60;;;5.20;49.40;;;;;;5034091;28;20034;-72
2021/03/23 07:02:47;;;;;;;6.05;2.30;;;5.30;49.30;;;;;;5034699;28;20410;-71
2021/03/23 07:05:19;;;;;;;4.45;2.22;;;5.40;49.00;;;;;;5033495;28;20030;-72
2021/03/23 07:08:08;;;;;;;6.30;2.42;;;5.40;48.80;;;;;;5032511;28;20029;-71
2021/03/23 07:10:42;;;;;;;6.80;2.67;;;5.50;48.60;;;;;;5034439;28;20163;-71
2021/03/23 07:13:26;;;;;;;7.03;3.28;;;5.50;48.40;;;;;;5032818;28;20029;-70
2021/03/23 07:16:24;;;;;;;5.90;3.00;;;5.60;48.40;;;;;;5032660;28;20060;-71
2021/03/23 07:18:51;;;;;;;4.32;2.80;;;5.70;48.10;;;;;;5031148;28;20056;-72
2021/03/23 07:21:25;;;;;;;4.45;2.40;;;5.80;48.10;;;;;;5033730;28;20060;-70
2021/03/23 07:24:13;;;;;;;5.72;2.42;;;5.90;47.70;;;;;;5034176;28;20105;-71
2021/03/23 07:27:16;;;;;;;2.78;1.58;;;6.10;47.50;;;;;;5033296;28;20033;-71
2021/03/23 07:29:42;;;;;;;3.78;1.77;;;6.20;47.20;;;;;;5026853;28;20398;-70
2021/03/23 07:32:34;;;;;;;5.57;1.77;;;6.40;47.00;;;;;;5033786;28;20030;-71
2021/03/23 07:35:22;;;;;;;3.95;1.88;;;6.50;46.10;;;;;;5033476;28;20029;-72
2021/03/23 07:38:00;;;;;;;5.15;1.95;;;6.70;45.50;;;;;;5033031;28;20444;-72
2021/03/23 07:40:40;;;;;;;3.50;1.80;;;6.90;45.30;;;;;;5033539;28;20079;-70
2021/03/23 07:43:21;;;;;;;3.58;1.73;;;7.00;44.80;;;;;;5021261;28;20026;-70
2021/03/23 07:46:07;;;;;;;3.50;1.90;;;7.20;44.10;;;;;;5013645;28;20468;-71
2021/03/23 07:49:03;;;;;;;3.33;2.25;;;7.30;43.70;;;;;;4997749;28;20125;-71
2021/03/23 07:51:33;;;;;;;5.18;1.60;;;7.50;43.50;;;;;;5013652;28;20032;-71
2021/03/23 07:54:10;;;;;;;3.10;1.58;;;7.70;43.20;;;;;;5013681;28;20036;-71
2021/03/23 07:56:56;;;;;;;4.03;1.92;;;8.00;42.80;;;;;;5013237;28;20416;-71
2021/03/23 07:59:39;;;;;;;4.50;1.33;;;8.20;42.20;;;;;;5013388;28;20529;-71
2021/03/23 08:02:23;;;;;;;4.07;1.60;;;8.30;41.60;;;;;;5013269;28;20050;-71
2021/03/23 08:05:08;;;;;;;2.45;1.25;;;8.40;41.20;;;;;;5013411;28;20061;-71
2021/03/23 08:07:55;;;;;;;8.60;3.33;;;8.60;40.70;;;;;;5013330;28;20037;-71
2021/03/23 08:10:59;;;;;;;5.65;2.30;;;8.90;40.50;;;;;;5012321;28;20034;-70
2021/03/23 08:13:49;;;;;;;7.05;1.50;;;9.30;40.30;;;;;;4996645;28;20424;-71
2021/03/23 08:16:33;;;;;;;3.00;1.50;;;9.80;39.60;;;;;;5011797;28;20080;-70
2021/03/23 08:19:30;;;;;;;5.40;1.55;;;10.10;38.70;;;;;;5012103;28;20061;-71
2021/03/23 08:22:14;;;;;;;2.75;1.40;;;10.00;38.20;;;;;;5012704;28;20041;-71
2021/03/23 08:24:55;;;;;;;2.65;1.60;;;9.80;38.50;;;;;;5015103;28;20030;-71
2021/03/23 08:27:49;;;;;;;1.40;1.23;;;10.10;38.60;;;;;;5019652;28;20062;-71
2021/03/23 08:30:30;;;;;;;2.35;1.52;;;10.70;37.90;;;;;;5019941;28;20030;-71
2021/03/23 08:33:14;;;;;;;3.65;1.20;;;11.50;38.00;;;;;;5019335;28;20022;-71
2021/03/23 08:36:00;;;;;;;2.08;1.85;;;12.00;37.30;;;;;;5019625;28;20030;-71
2021/03/23 08:38:52;;;;;;;7.30;1.65;;;12.70;36.60;;;;;;5019397;28;20065;-71
2021/03/23 08:41:27;;;;;;;1.23;1.13;;;13.40;36.50;;;;;;5019738;28;20089;-71
2021/03/23 08:43:53;;;;;;;2.65;1.42;;;14.60;36.00;;;;;;5019576;28;20168;-72
2021/03/23 08:46:24;;;;;;;10.00;1.95;;;15.80;35.20;;;;;;5019578;28;20105;-71
2021/03/23 08:48:58;;;;;;;10.75;3.03;;;16.90;34.00;;;;;;5019463;28;20045;-71
2021/03/23 08:51:26;;;;;;;7.80;2.60;;;18.00;32.10;;;;;;5026515;28;20455;-71
2021/03/23 08:53:54;;;;;;;3.33;1.90;;;18.70;31.30;;;;;;5024235;28;20108;-71
2021/03/23 08:56:42;;;;;;;10.88;2.17;;;19.50;30.10;;;;;;5027628;28;20035;-71
2021/03/23 08:59:42;;;;;;;5.30;2.50;;;20.30;28.90;;;;;;5028253;28;20148;-70
2021/03/23 09:02:07;;;;;;;4.03;2.55;;;21.10;28.50;;;;;;5016044;28;20056;-71
2021/03/23 09:04:41;;;;;;;11.60;3.90;;;21.30;28.20;;;;;;5036401;28;20045;-71
2021/03/23 09:07:13;;;;;;;6.30;2.93;;;21.40;27.60;;;;;;5039174;28;20060;-71
2021/03/23 09:09:49;;;;;;;4.45;2.35;;;22.00;27.20;;;;;;5038994;28;20621;-70
2021/03/23 09:12:42;;;;;;;8.75;2.30;;;21.90;26.40;;;;;;5039954;28;20053;-70
2021/03/23 09:15:17;;;;;;;5.30;2.38;;;21.30;26.30;;;;;;5034682;28;20107;-72
2021/03/23 09:18:05;;;;;;;6.07;2.95;;;20.80;26.30;;;;;;5038629;28;20040;-71
2021/03/23 09:20:31;;;;;;;8.38;3.40;;;20.20;26.30;;;;;;5039018;28;20029;-72
2021/03/23 09:23:19;;;;;;;9.40;3.42;;;20.70;26.80;;;;;;5038883;28;20040;-70
2021/03/23 09:25:57;;;;;;;5.00;1.77;;;21.50;25.90;;;;;;5038615;28;20040;-71
2021/03/23 09:28:29;;;;;;;15.00;1.90;;;22.50;25.40;;;;;;5039016;28;20033;-71
2021/03/23 09:30:58;;;;;;;1.27;0.80;;;23.10;24.80;;;;;;5038988;28;20025;-71
2021/03/23 09:33:24;;;;;;;3.08;1.33;;;22.80;24.10;;;;;;5039023;28;20065;-72
2021/03/23 09:36:02;;;;;;;2.03;1.10;;;21.60;24.00;;;;;;5037529;28;20056;-71
2021/03/23 09:38:31;;;;;;;2.20;1.52;;;20.50;24.10;;;;;;5034268;28;20044;-71
2021/03/23 09:41:01;;;;;;;3.78;1.58;;;20.40;24.70;;;;;;5035825;28;20025;-71
2021/03/23 09:43:38;;;;;;;3.45;0.90;;;21.30;25.10;;;;;;5035803;28;20117;-71
2021/03/23 09:46:27;;;;;;;5.45;1.48;;;22.50;24.90;;;;;;5035683;28;20025;-71
2021/03/23 09:49:03;;;;;;;3.45;1.30;;;23.50;25.00;;;;;;5031372;28;20049;-72
2021/03/23 09:52:02;;;;;;;4.65;1.60;;;24.50;24.90;;;;;;5035760;28;20076;-71
2021/03/23 09:54:32;;;;;;;1.67;1.00;;;25.00;24.10;;;;;;5035612;28;20100;-71
2021/03/23 09:57:11;;;;;;;2.10;1.20;;;24.00;23.70;;;;;;5035520;28;20034;-72
2021/03/23 09:59:47;;;;;;;0.95;0.93;;;22.20;23.50;;;;;;5035473;28;20052;-73
2021/03/23 10:02:33;;;;;;;1.33;1.20;;;20.80;24.00;;;;;;5035059;28;20515;-71
2021/03/23 10:05:18;;;;;;;3.85;1.48;;;20.70;24.80;;;;;;5035600;28;20045;-71
2021/03/23 10:07:45;;;;;;;3.90;1.45;;;21.70;24.90;;;;;;5035259;28;20053;-71
2021/03/23 10:10:21;;;;;;;2.33;1.20;;;22.60;24.70;;;;;;5035395;28;20051;-71
2021/03/23 10:12:47;;;;;;;4.43;1.50;;;22.30;24.10;;;;;;5035133;28;20033;-72
2021/03/23 10:15:21;;;;;;;1.60;0.95;;;21.80;24.40;;;;;;5035153;28;20036;-72
2021/03/23 10:17:47;;;;;;;1.70;1.10;;;22.10;24.40;;;;;;5027976;28;20384;-70
2021/03/23 10:20:18;;;;;;;1.75;1.02;;;22.90;24.70;;;;;;5015492;28;20029;-72
2021/03/23 10:22:52;;;;;;;2.53;1.17;;;23.60;24.40;;;;;;5015158;28;20033;-71
2021/03/23 10:25:20;;;;;;;1.83;1.02;;;24.10;24.10;;;;;;5015241;28;20032;-72
2021/03/23 10:27:46;;;;;;;7.60;1.58;;;24.70;24.20;;;;;;5015017;28;20029;-70
2021/03/23 10:30:18;;;;;;;3.40;1.20;;;25.60;23.90;;;;;;5014840;28;20026;-71
2021/03/23 10:32:48;;;;;;;3.03;1.52;;;26.10;23.40;;;;;;5014934;28;20022;-72
2021/03/23 10:35:23;;;;;;;4.93;1.63;;;25.60;23.00;;;;;;5023997;28;20511;-72
2021/03/23 10:38:14;;;;;;;5.70;2.22;;;24.30;22.60;;;;;;5020761;28;20022;-71
2021/03/23 10:40:41;;;;;;;6.10;1.80;;;22.50;23.00;;;;;;5021425;28;20029;-73
2021/03/23 10:43:26;;;;;;;4.30;1.38;;;21.00;23.50;;;;;;5022427;28;20022;-71
2021/03/23 10:45:52;;;;;;;5.45;2.03;;;19.90;23.70;;;;;;5019811;28;20431;-72
2021/03/23 10:48:27;;;;;;;3.25;1.63;;;19.60;24.30;;;;;;5023551;28;20109;-73
2021/03/23 10:51:20;;;;;;;2.85;1.27;;;20.60;24.30;;;;;;5020415;28;20025;-71
2021/03/23 10:54:19;;;;;;;2.60;1.50;;;22.20;23.90;;;;;;5020180;28;20069;-72
2021/03/23 10:56:50;;;;;;;5.90;1.20;;;23.60;23.60;;;;;;5015084;28;20506;-71
2021/03/23 10:59:19;;;;;;;2.45;1.40;;;24.20;23.30;;;;;;5022223;28;20431;-71
2021/03/23 11:02:13;;;;;;;2.05;1.15;;;24.00;23.10;;;;;;5017285;28;20050;-72
2021/03/23 11:04:56;;;;;;;4.38;1.50;;;22.50;22.90;;;;;;4994724;28;20026;-71
2021/03/23 11:07:25;;;;;;;4.50;1.23;;;20.90;23.40;;;;;;4994801;28;20530;-72
2021/03/23 11:09:52;;;;;;;2.97;1.55;;;20.10;24.20;;;;;;4994613;28;20046;-71
2021/03/23 11:12:17;;;;;;;3.80;1.42;;;20.40;24.60;;;;;;4995230;28;20357;-71
2021/03/23 11:14:43;;;;;;;3.03;1.10;;;21.20;24.70;;;;;;4994691;28;20025;-71
2021/03/23 11:17:12;;;;;;;1.85;1.40;;;21.90;24.60;;;;;;4994493;28;20023;-71
2021/03/23 11:19:42;;;;;;;3.40;1.73;;;22.90;24.60;;;;;;4994054;28;20042;-73
2021/03/23 11:22:27;;;;;;;2.08;1.40;;;23.70;24.20;;;;;;4994572;28;20026;-71
2021/03/23 11:24:53;;;;;;;5.50;1.48;;;23.00;23.40;;;;;;5009003;28;20022;-71
2021/03/23 11:27:22;;;;;;;2.58;1.73;;;21.40;23.50;;;;;;5013885;28;20026;-73
2021/03/23 11:29:47;;;;;;;3.55;2.20;;;19.80;23.90;;;;;;5013986;28;20472;-72
2021/03/23 11:32:13;;;;;;;4.60;2.63;;;18.40;24.30;;;;;;5012883;28;20021;-72
2021/03/23 11:34:39;;;;;;;4.60;3.08;;;17.10;24.70;;;;;;5013595;28;20030;-71
2021/03/23 11:37:05;;;;;;;4.47;2.63;;;16.30;25.40;;;;;;5013940;28;20049;-71
2021/03/23 11:39:31;;;;;;;5.50;2.50;;;17.20;26.10;;;;;;5013587;28;20034;-71
2021/03/23 11:42:07;;;;;;;3.03;2.08;;;18.80;26.10;;;;;;5023699;28;20022;-72
2021/03/23 11:44:37;;;;;;;3.88;2.05;;;20.70;25.30;;;;;;5020777;28;20368;-72
2021/03/23 11:47:24;;;;;;;2.15;1.63;;;22.30;24.90;;;;;;5013641;28;20030;-73
2021/03/23 11:50:07;;;;;;;2.83;1.83;;;24.00;24.00;;;;;;5013662;28;20076;-72
2021/03/23 11:52:33;;;;;;;2.83;1.45;;;25.70;23.40;;;;;;5009398;28;20496;-71
2021/03/23 11:55:02;;;;;;;2.45;1.10;;;26.50;22.90;;;;;;5020791;28;20084;-71
2021/03/23 11:57:28;;;;;;;1.88;0.82;;;26.30;22.10;;;;;;5023225;28;20116;-72
2021/03/23 11:59:54;;;;;;;3.15;1.25;;;25.40;21.70;;;;;;5021200;28;20052;-72
2021/03/23 12:02:21;;;;;;;1.40;1.30;;;24.30;21.60;;;;;;5023830;28;20099;-71
2021/03/23 12:04:47;;;;;;;1.98;1.02;;;23.00;21.80;;;;;;5028534;28;20497;-71
2021/03/23 12:07:15;;;;;;;4.80;1.63;;;21.60;22.30;;;;;;5032856;28;20100;-72
2021/03/23 12:09:51;;;;;;;5.18;2.00;;;20.40;23.00;;;;;;5032803;28;20052;-75
2021/03/23 12:12:22;;;;;;;5.00;2.00;;;20.00;23.90;;;;;;5033240;28;20030;-71
2021/03/23 12:15:00;;;;;;;1.60;1.23;;;20.40;24.60;;;;;;5032851;28;20104;-73
2021/03/23 12:17:30;;;;;;;3.97;1.80;;;21.20;25.00;;;;;;5032983;28;20025;-72
2021/03/23 12:20:04;;;;;;;4.22;1.60;;;22.20;24.90;;;;;;5031258;28;20029;-72
2021/03/23 12:22:30;;;;;;;3.00;1.48;;;22.80;24.60;;;;;;5032802;28;20025;-72
2021/03/23 12:24:55;;;;;;;3.75;1.60;;;23.00;24.30;;;;;;5032690;28;20034;-72
2021/03/23 12:27:21;;;;;;;3.03;1.60;;;23.10;24.20;;;;;;5033061;28;20048;-72
2021/03/23 12:29:47;;;;;;;4.75;1.88;;;23.70;24.20;;;;;;5032942;28;20030;-71
2021/03/23 12:32:16;;;;;;;3.05;1.48;;;24.50;24.00;;;;;;5032703;28;20091;-72
2021/03/23 12:34:43;;;;;;;2.10;1.40;;;25.30;23.70;;;;;;5032934;28;20115;-71
2021/03/23 12:37:10;;;;;;;2.55;1.40;;;25.90;23.50;;;;;;5015835;28;20121;-71
2021/03/23 12:39:39;;;;;;;3.60;1.60;;;25.40;23.00;;;;;;5012811;28;20037;-75
2021/03/23 12:42:06;;;;;;;5.38;2.00;;;23.80;23.30;;;;;;5012850;28;20383;-72
2021/03/23 12:44:32;;;;;;;5.32;1.60;;;21.90;24.40;;;;;;5011987;28;20132;-71
2021/03/23 12:46:58;;;;;;;6.25;2.17;;;19.80;25.70;;;;;;5012663;28;20029;-72
2021/03/23 12:49:24;;;;;;;2.70;1.70;;;17.90;27.10;;;;;;5012508;28;20072;-71
2021/03/23 12:51:58;;;;;;;3.55;1.48;;;16.30;28.60;;;;;;5010883;28;20096;-71
2021/03/23 12:54:41;;;;;;;4.32;1.80;;;14.90;30.20;;;;;;5012570;28;20117;-72
2021/03/23 12:57:20;;;;;;;3.05;1.83;;;13.70;32.70;;;;;;5012520;28;20080;-71
2021/03/23 12:59:54;;;;;;;17.85;8.70;;;13.10;34.10;;;;;;5012729;28;20460;-71
2021/03/23 13:02:25;;;;;;;1.95;1.40;;;13.50;35.50;;;;;;5013190;28;20060;-70
2021/03/23 13:04:51;;;;;;;3.80;1.90;;;15.00;35.90;;;;;;5012446;28;20034;-72
2021/03/23 13:07:24;;;;;;;2.97;1.73;;;16.90;34.50;;;;;;5012349;28;20412;-71
2021/03/23 13:09:51;;;;;;;1.73;1.33;;;18.70;32.90;;;;;;5011521;28;20037;-71
2021/03/23 13:12:18;;;;;;;4.18;1.60;;;20.00;30.30;;;;;;5017005;28;20037;-72
2021/03/23 13:14:45;;;;;;;1.63;1.42;;;21.10;29.10;;;;;;5023872;28;20025;-73
2021/03/23 13:17:12;;;;;;;1.70;1.58;;;21.80;28.10;;;;;;5021548;28;20022;-71
2021/03/23 13:19:39;;;;;;;2.20;1.50;;;21.50;27.30;;;;;;5023305;28;20083;-71
2021/03/23 13:22:05;;;;;;;2.03;1.50;;;20.60;27.30;;;;;;5022781;28;20022;-72